sensor_id;sensor_type;location;lat;lon;timestamp;temperature;humidity
45096;DHT22;30858;51.108;8.068;2023-02-02T00:01:40;1.60;99.90
45096;DHT22;30858;51.108;8.068;2023-02-02T00:04:06;1.60;99.90
45096;DHT22;30858;51.108;8.068;2023-02-02T00:06:32;1.50;99.90
45096;DHT22;30858;51.108;8.068;2023-02-02T00:09:00;1.50;99.90
45096;DHT22;30858;51.108;8.068;2023-02-02T00:11:26;1.40;99.90
45096;DHT22;30858;51.108;8.068;2023-02-02T00:13:52;1.40;99.90
45096;DHT22;30858;51.108;8.068;2023-02-02T00:18:57;1.50;99.90
45096;DHT22;30858;51.108;8.068;2023-02-02T00:21:23;1.40;99.90
45096;DHT22;30858;51.108;8.068;2023-02-02T00:23:49;1.40;99.90
45096;DHT22;30858;51.108;8.068;2023-02-02T00:26:15;1.30;99.90
45096;DHT22;30858;51.108;8.068;2023-02-02T00:28:41;1.20;99.90
45096;DHT22;30858;51.108;8.068;2023-02-02T00:31:07;1.30;99.90
45096;DHT22;30858;51.108;8.068;2023-02-02T00:33:33;1.40;99.90
45096;DHT22;30858;51.108;8.068;2023-02-02T00:35:58;1.40;99.90
45096;DHT22;30858;51.108;8.068;2023-02-02T00:38:24;1.40;99.90
45096;DHT22;30858;51.108;8.068;2023-02-02T00:40:49;1.40;99.90
45096;DHT22;30858;51.108;8.068;2023-02-02T00:43:15;1.40;99.90
45096;DHT22;30858;51.108;8.068;2023-02-02T00:45:40;1.30;99.90
45096;DHT22;30858;51.108;8.068;2023-02-02T00:48:06;1.40;99.90
45096;DHT22;30858;51.108;8.068;2023-02-02T00:50:32;1.40;99.90
45096;DHT22;30858;51.108;8.068;2023-02-02T00:52:57;1.50;99.90
45096;DHT22;30858;51.108;8.068;2023-02-02T00:55:26;1.50;99.90
45096;DHT22;30858;51.108;8.068;2023-02-02T00:57:52;1.40;99.90
45096;DHT22;30858;51.108;8.068;2023-02-02T01:00:20;1.40;99.90
45096;DHT22;30858;51.108;8.068;2023-02-02T01:02:48;1.40;99.90
45096;DHT22;30858;51.108;8.068;2023-02-02T01:05:14;1.50;99.90
45096;DHT22;30858;51.108;8.068;2023-02-02T01:07:40;1.50;99.90
45096;DHT22;30858;51.108;8.068;2023-02-02T01:10:08;1.50;99.90
45096;DHT22;30858;51.108;8.068;2023-02-02T01:12:35;1.50;99.90
45096;DHT22;30858;51.108;8.068;2023-02-02T01:15:01;1.50;99.90
45096;DHT22;30858;51.108;8.068;2023-02-02T01:17:27;1.50;99.90
45096;DHT22;30858;51.108;8.068;2023-02-02T01:19:52;1.40;99.90
45096;DHT22;30858;51.108;8.068;2023-02-02T01:22:18;1.40;99.90
45096;DHT22;30858;51.108;8.068;2023-02-02T01:24:44;1.40;99.90
45096;DHT22;30858;51.108;8.068;2023-02-02T01:27:09;1.40;99.90
45096;DHT22;30858;51.108;8.068;2023-02-02T01:29:35;1.40;99.90
45096;DHT22;30858;51.108;8.068;2023-02-02T01:32:00;1.50;99.90
45096;DHT22;30858;51.108;8.068;2023-02-02T01:34:26;1.50;99.90
45096;DHT22;30858;51.108;8.068;2023-02-02T01:36:51;1.50;99.90
45096;DHT22;30858;51.108;8.068;2023-02-02T01:39:17;1.60;99.90
45096;DHT22;30858;51.108;8.068;2023-02-02T01:41:43;1.60;99.90
45096;DHT22;30858;51.108;8.068;2023-02-02T01:47:12;1.50;99.90
45096;DHT22;30858;51.108;8.068;2023-02-02T01:49:39;1.60;99.90
45096;DHT22;30858;51.108;8.068;2023-02-02T01:52:05;1.50;99.90
45096;DHT22;30858;51.108;8.068;2023-02-02T01:54:40;1.50;99.90
45096;DHT22;30858;51.108;8.068;2023-02-02T01:57:31;1.50;99.90
45096;DHT22;30858;51.108;8.068;2023-02-02T01:59:56;1.50;99.90
45096;DHT22;30858;51.108;8.068;2023-02-02T02:02:24;1.50;99.90
45096;DHT22;30858;51.108;8.068;2023-02-02T02:04:53;1.50;99.90
45096;DHT22;30858;51.108;8.068;2023-02-02T02:07:20;1.50;99.90
45096;DHT22;30858;51.108;8.068;2023-02-02T02:09:45;1.50;99.90
45096;DHT22;30858;51.108;8.068;2023-02-02T02:12:12;1.50;99.90
45096;DHT22;30858;51.108;8.068;2023-02-02T02:14:40;1.50;99.90
45096;DHT22;30858;51.108;8.068;2023-02-02T02:23:28;1.60;99.90
45096;DHT22;30858;51.108;8.068;2023-02-02T02:26:22;1.70;99.90
45096;DHT22;30858;51.108;8.068;2023-02-02T02:34:11;1.70;99.90
45096;DHT22;30858;51.108;8.068;2023-02-02T02:42:19;1.70;99.90
45096;DHT22;30858;51.108;8.068;2023-02-02T02:44:48;1.70;99.90
45096;DHT22;30858;51.108;8.068;2023-02-02T02:47:14;1.70;99.90
45096;DHT22;30858;51.108;8.068;2023-02-02T02:49:44;1.70;99.90
45096;DHT22;30858;51.108;8.068;2023-02-02T02:52:11;1.70;99.90
45096;DHT22;30858;51.108;8.068;2023-02-02T02:54:40;1.70;99.90
45096;DHT22;30858;51.108;8.068;2023-02-02T02:57:26;1.70;99.90
45096;DHT22;30858;51.108;8.068;2023-02-02T03:02:47;1.70;99.90
45096;DHT22;30858;51.108;8.068;2023-02-02T03:10:46;1.70;99.90
45096;DHT22;30858;51.108;8.068;2023-02-02T03:13:13;1.70;99.90
45096;DHT22;30858;51.108;8.068;2023-02-02T03:15:41;1.70;99.90
45096;DHT22;30858;51.108;8.068;2023-02-02T03:18:06;1.70;99.90
45096;DHT22;30858;51.108;8.068;2023-02-02T03:20:32;1.70;99.90
45096;DHT22;30858;51.108;8.068;2023-02-02T03:22:58;1.70;99.90
45096;DHT22;30858;51.108;8.068;2023-02-02T03:25:23;1.80;99.90
45096;DHT22;30858;51.108;8.068;2023-02-02T03:27:49;1.70;99.90
45096;DHT22;30858;51.108;8.068;2023-02-02T03:30:15;1.80;99.90
45096;DHT22;30858;51.108;8.068;2023-02-02T03:32:41;1.80;99.90
45096;DHT22;30858;51.108;8.068;2023-02-02T03:35:07;1.80;99.90
45096;DHT22;30858;51.108;8.068;2023-02-02T03:37:33;1.80;99.90
45096;DHT22;30858;51.108;8.068;2023-02-02T03:39:59;1.90;99.90
45096;DHT22;30858;51.108;8.068;2023-02-02T03:42:24;1.90;99.90
45096;DHT22;30858;51.108;8.068;2023-02-02T03:44:50;1.80;99.90
45096;DHT22;30858;51.108;8.068;2023-02-02T03:47:15;1.80;99.90
45096;DHT22;30858;51.108;8.068;2023-02-02T03:49:41;1.80;99.90
45096;DHT22;30858;51.108;8.068;2023-02-02T03:52:06;1.80;99.90
45096;DHT22;30858;51.108;8.068;2023-02-02T03:54:32;1.90;99.90
45096;DHT22;30858;51.108;8.068;2023-02-02T03:56:57;1.80;99.90
45096;DHT22;30858;51.108;8.068;2023-02-02T03:59:23;1.80;99.90
45096;DHT22;30858;51.108;8.068;2023-02-02T04:01:48;1.90;99.90
45096;DHT22;30858;51.108;8.068;2023-02-02T04:04:14;1.90;99.90
45096;DHT22;30858;51.108;8.068;2023-02-02T04:06:40;1.80;99.90
45096;DHT22;30858;51.108;8.068;2023-02-02T04:09:05;1.90;99.90
45096;DHT22;30858;51.108;8.068;2023-02-02T04:11:31;1.90;99.90
45096;DHT22;30858;51.108;8.068;2023-02-02T04:13:57;1.90;99.90
45096;DHT22;30858;51.108;8.068;2023-02-02T04:16:22;2.00;99.90
45096;DHT22;30858;51.108;8.068;2023-02-02T04:18:48;1.90;99.90
45096;DHT22;30858;51.108;8.068;2023-02-02T04:21:13;1.90;99.90
45096;DHT22;30858;51.108;8.068;2023-02-02T04:23:39;2.00;99.90
45096;DHT22;30858;51.108;8.068;2023-02-02T04:26:05;2.00;99.90
45096;DHT22;30858;51.108;8.068;2023-02-02T04:28:30;2.10;99.90
45096;DHT22;30858;51.108;8.068;2023-02-02T04:30:56;2.10;99.90
45096;DHT22;30858;51.108;8.068;2023-02-02T04:33:23;2.20;99.90
45096;DHT22;30858;51.108;8.068;2023-02-02T04:35:50;2.10;99.90
45096;DHT22;30858;51.108;8.068;2023-02-02T04:38:15;2.20;99.90
45096;DHT22;30858;51.108;8.068;2023-02-02T04:40:43;2.20;99.90
45096;DHT22;30858;51.108;8.068;2023-02-02T04:43:09;2.20;99.90
45096;DHT22;30858;51.108;8.068;2023-02-02T04:45:35;2.30;99.90
45096;DHT22;30858;51.108;8.068;2023-02-02T04:48:01;2.30;99.90
45096;DHT22;30858;51.108;8.068;2023-02-02T04:50:28;2.40;99.90
45096;DHT22;30858;51.108;8.068;2023-02-02T04:52:53;2.40;99.90
45096;DHT22;30858;51.108;8.068;2023-02-02T04:55:21;2.40;99.90
45096;DHT22;30858;51.108;8.068;2023-02-02T04:57:47;2.40;99.90
45096;DHT22;30858;51.108;8.068;2023-02-02T05:00:13;2.50;99.90
45096;DHT22;30858;51.108;8.068;2023-02-02T05:02:40;2.40;99.90
45096;DHT22;30858;51.108;8.068;2023-02-02T05:05:08;2.50;99.90
45096;DHT22;30858;51.108;8.068;2023-02-02T05:07:35;2.50;99.90
45096;DHT22;30858;51.108;8.068;2023-02-02T05:10:01;2.60;99.90
45096;DHT22;30858;51.108;8.068;2023-02-02T05:12:26;2.50;99.90
45096;DHT22;30858;51.108;8.068;2023-02-02T05:14:52;2.50;99.90
45096;DHT22;30858;51.108;8.068;2023-02-02T05:17:17;2.70;99.90
45096;DHT22;30858;51.108;8.068;2023-02-02T05:19:43;2.80;99.90
45096;DHT22;30858;51.108;8.068;2023-02-02T05:22:09;2.80;99.90
45096;DHT22;30858;51.108;8.068;2023-02-02T05:24:34;2.70;99.90
45096;DHT22;30858;51.108;8.068;2023-02-02T05:27:00;2.90;99.90
45096;DHT22;30858;51.108;8.068;2023-02-02T05:29:29;2.90;99.90
45096;DHT22;30858;51.108;8.068;2023-02-02T05:31:57;2.80;99.90
45096;DHT22;30858;51.108;8.068;2023-02-02T05:34:23;2.80;99.90
45096;DHT22;30858;51.108;8.068;2023-02-02T05:36:48;2.80;99.90
45096;DHT22;30858;51.108;8.068;2023-02-02T05:39:14;2.80;99.90
45096;DHT22;30858;51.108;8.068;2023-02-02T05:41:40;2.80;99.90
45096;DHT22;30858;51.108;8.068;2023-02-02T05:44:06;2.80;99.90
45096;DHT22;30858;51.108;8.068;2023-02-02T05:46:31;2.80;99.90
45096;DHT22;30858;51.108;8.068;2023-02-02T05:48:57;2.80;99.90
45096;DHT22;30858;51.108;8.068;2023-02-02T05:51:31;2.90;99.90
45096;DHT22;30858;51.108;8.068;2023-02-02T05:53:57;2.90;99.90
45096;DHT22;30858;51.108;8.068;2023-02-02T05:56:22;2.90;99.90
45096;DHT22;30858;51.108;8.068;2023-02-02T05:58:48;3.00;99.90
45096;DHT22;30858;51.108;8.068;2023-02-02T06:01:15;3.00;99.90
45096;DHT22;30858;51.108;8.068;2023-02-02T06:03:40;2.90;99.90
45096;DHT22;30858;51.108;8.068;2023-02-02T06:06:06;3.00;99.90
45096;DHT22;30858;51.108;8.068;2023-02-02T06:08:32;2.90;99.90
45096;DHT22;30858;51.108;8.068;2023-02-02T06:10:57;3.00;99.90
45096;DHT22;30858;51.108;8.068;2023-02-02T06:13:23;3.00;99.90
45096;DHT22;30858;51.108;8.068;2023-02-02T06:15:49;3.00;99.90
45096;DHT22;30858;51.108;8.068;2023-02-02T06:18:14;3.00;99.90
45096;DHT22;30858;51.108;8.068;2023-02-02T06:20:40;3.00;99.90
45096;DHT22;30858;51.108;8.068;2023-02-02T06:23:07;3.00;99.90
45096;DHT22;30858;51.108;8.068;2023-02-02T06:25:32;3.10;99.90
45096;DHT22;30858;51.108;8.068;2023-02-02T06:27:59;3.20;99.90
45096;DHT22;30858;51.108;8.068;2023-02-02T06:30:26;3.20;99.90
45096;DHT22;30858;51.108;8.068;2023-02-02T06:32:52;3.20;99.90
45096;DHT22;30858;51.108;8.068;2023-02-02T06:35:18;3.40;99.90
45096;DHT22;30858;51.108;8.068;2023-02-02T06:37:44;3.60;99.90
45096;DHT22;30858;51.108;8.068;2023-02-02T06:40:10;3.70;99.90
45096;DHT22;30858;51.108;8.068;2023-02-02T06:42:35;3.80;99.90
45096;DHT22;30858;51.108;8.068;2023-02-02T06:45:02;4.00;99.90
45096;DHT22;30858;51.108;8.068;2023-02-02T06:47:28;4.10;99.90
45096;DHT22;30858;51.108;8.068;2023-02-02T06:49:53;4.30;99.90
45096;DHT22;30858;51.108;8.068;2023-02-02T06:52:19;4.50;99.90
45096;DHT22;30858;51.108;8.068;2023-02-02T06:54:44;4.70;99.90
45096;DHT22;30858;51.108;8.068;2023-02-02T06:57:10;4.90;99.90
45096;DHT22;30858;51.108;8.068;2023-02-02T06:59:35;4.80;99.90
45096;DHT22;30858;51.108;8.068;2023-02-02T07:02:02;4.90;99.90
45096;DHT22;30858;51.108;8.068;2023-02-02T07:04:27;5.00;99.90
45096;DHT22;30858;51.108;8.068;2023-02-02T07:06:53;5.00;99.90
45096;DHT22;30858;51.108;8.068;2023-02-02T07:09:18;5.00;99.90
45096;DHT22;30858;51.108;8.068;2023-02-02T07:11:44;5.00;99.90
45096;DHT22;30858;51.108;8.068;2023-02-02T07:14:10;5.10;99.90
45096;DHT22;30858;51.108;8.068;2023-02-02T07:16:36;5.20;99.90
45096;DHT22;30858;51.108;8.068;2023-02-02T07:19:01;5.20;99.90
45096;DHT22;30858;51.108;8.068;2023-02-02T07:21:27;5.20;99.90
45096;DHT22;30858;51.108;8.068;2023-02-02T07:23:59;5.20;99.90
45096;DHT22;30858;51.108;8.068;2023-02-02T07:26:25;5.30;99.90
45096;DHT22;30858;51.108;8.068;2023-02-02T07:28:52;5.30;99.90
45096;DHT22;30858;51.108;8.068;2023-02-02T07:31:19;5.30;99.90
45096;DHT22;30858;51.108;8.068;2023-02-02T07:33:46;5.30;99.90
45096;DHT22;30858;51.108;8.068;2023-02-02T07:36:14;5.30;99.90
45096;DHT22;30858;51.108;8.068;2023-02-02T07:38:43;5.40;99.90
45096;DHT22;30858;51.108;8.068;2023-02-02T07:41:10;5.30;99.90
45096;DHT22;30858;51.108;8.068;2023-02-02T07:43:35;5.30;99.90
45096;DHT22;30858;51.108;8.068;2023-02-02T07:46:02;5.40;99.90
45096;DHT22;30858;51.108;8.068;2023-02-02T07:48:31;5.40;99.90
45096;DHT22;30858;51.108;8.068;2023-02-02T07:51:01;5.40;99.90
45096;DHT22;30858;51.108;8.068;2023-02-02T07:53:27;5.40;99.90
45096;DHT22;30858;51.108;8.068;2023-02-02T07:55:53;5.40;99.90
45096;DHT22;30858;51.108;8.068;2023-02-02T07:58:18;5.40;99.90
45096;DHT22;30858;51.108;8.068;2023-02-02T08:00:44;5.40;99.90
45096;DHT22;30858;51.108;8.068;2023-02-02T08:03:11;5.40;99.90
45096;DHT22;30858;51.108;8.068;2023-02-02T08:05:36;5.50;99.90
45096;DHT22;30858;51.108;8.068;2023-02-02T08:08:02;5.50;99.90
45096;DHT22;30858;51.108;8.068;2023-02-02T08:10:28;5.50;99.90
45096;DHT22;30858;51.108;8.068;2023-02-02T08:12:53;5.50;99.90
45096;DHT22;30858;51.108;8.068;2023-02-02T08:15:19;5.50;99.90
45096;DHT22;30858;51.108;8.068;2023-02-02T08:17:45;5.50;99.90
45096;DHT22;30858;51.108;8.068;2023-02-02T08:20:11;5.50;99.90
45096;DHT22;30858;51.108;8.068;2023-02-02T08:22:38;5.50;99.90
45096;DHT22;30858;51.108;8.068;2023-02-02T08:25:04;5.50;99.90
45096;DHT22;30858;51.108;8.068;2023-02-02T08:27:29;5.50;99.90
45096;DHT22;30858;51.108;8.068;2023-02-02T08:29:55;5.50;99.90
45096;DHT22;30858;51.108;8.068;2023-02-02T08:32:21;5.60;99.90
45096;DHT22;30858;51.108;8.068;2023-02-02T08:34:49;5.60;99.90
45096;DHT22;30858;51.108;8.068;2023-02-02T08:37:16;5.80;99.90
45096;DHT22;30858;51.108;8.068;2023-02-02T08:39:42;5.80;99.90
45096;DHT22;30858;51.108;8.068;2023-02-02T08:42:07;5.70;99.90
45096;DHT22;30858;51.108;8.068;2023-02-02T08:44:33;5.80;99.90
45096;DHT22;30858;51.108;8.068;2023-02-02T08:46:58;5.80;99.90
45096;DHT22;30858;51.108;8.068;2023-02-02T08:49:24;5.80;99.90
45096;DHT22;30858;51.108;8.068;2023-02-02T08:51:50;5.80;99.90
45096;DHT22;30858;51.108;8.068;2023-02-02T08:54:15;5.90;99.90
45096;DHT22;30858;51.108;8.068;2023-02-02T08:56:41;5.80;99.90
45096;DHT22;30858;51.108;8.068;2023-02-02T08:59:06;5.90;99.90
45096;DHT22;30858;51.108;8.068;2023-02-02T09:01:33;5.90;99.90
45096;DHT22;30858;51.108;8.068;2023-02-02T09:04:13;5.90;99.90
45096;DHT22;30858;51.108;8.068;2023-02-02T09:06:40;5.90;99.90
45096;DHT22;30858;51.108;8.068;2023-02-02T09:09:08;5.90;99.90
45096;DHT22;30858;51.108;8.068;2023-02-02T09:11:34;5.90;99.90
45096;DHT22;30858;51.108;8.068;2023-02-02T09:13:59;5.90;99.90
45096;DHT22;30858;51.108;8.068;2023-02-02T09:16:27;5.90;99.90
45096;DHT22;30858;51.108;8.068;2023-02-02T09:18:54;5.90;99.90
45096;DHT22;30858;51.108;8.068;2023-02-02T09:21:20;5.90;99.90
45096;DHT22;30858;51.108;8.068;2023-02-02T09:23:47;5.90;99.90
45096;DHT22;30858;51.108;8.068;2023-02-02T09:28:58;6.00;99.90
45096;DHT22;30858;51.108;8.068;2023-02-02T09:31:27;5.90;99.90
45096;DHT22;30858;51.108;8.068;2023-02-02T09:33:52;5.90;99.90
45096;DHT22;30858;51.108;8.068;2023-02-02T09:36:20;5.90;99.90
45096;DHT22;30858;51.108;8.068;2023-02-02T09:38:47;6.00;99.90
45096;DHT22;30858;51.108;8.068;2023-02-02T09:41:26;6.00;99.90
45096;DHT22;30858;51.108;8.068;2023-02-02T09:49:11;6.00;99.90
45096;DHT22;30858;51.108;8.068;2023-02-02T09:51:40;6.00;99.90
45096;DHT22;30858;51.108;8.068;2023-02-02T09:54:28;6.00;99.90
45096;DHT22;30858;51.108;8.068;2023-02-02T09:56:59;6.00;99.90
45096;DHT22;30858;51.108;8.068;2023-02-02T09:59:32;6.00;99.90
45096;DHT22;30858;51.108;8.068;2023-02-02T10:02:03;6.00;99.90
45096;DHT22;30858;51.108;8.068;2023-02-02T10:04:35;6.00;99.90
45096;DHT22;30858;51.108;8.068;2023-02-02T10:07:12;6.00;99.90
45096;DHT22;30858;51.108;8.068;2023-02-02T10:09:47;6.00;99.90
45096;DHT22;30858;51.108;8.068;2023-02-02T10:20:45;6.00;99.90
45096;DHT22;30858;51.108;8.068;2023-02-02T10:23:23;6.10;99.90
45096;DHT22;30858;51.108;8.068;2023-02-02T10:31:15;6.10;99.90
45096;DHT22;30858;51.108;8.068;2023-02-02T10:33:43;6.10;99.90
45096;DHT22;30858;51.108;8.068;2023-02-02T10:36:41;6.10;99.90
45096;DHT22;30858;51.108;8.068;2023-02-02T10:42:10;6.00;99.90
45096;DHT22;30858;51.108;8.068;2023-02-02T10:44:55;6.10;99.90
45096;DHT22;30858;51.108;8.068;2023-02-02T10:47:32;6.00;99.90
45096;DHT22;30858;51.108;8.068;2023-02-02T10:50:19;6.00;99.90
45096;DHT22;30858;51.108;8.068;2023-02-02T10:52:53;6.00;99.90
45096;DHT22;30858;51.108;8.068;2023-02-02T10:55:37;6.00;99.90
45096;DHT22;30858;51.108;8.068;2023-02-02T10:58:21;6.10;99.90
45096;DHT22;30858;51.108;8.068;2023-02-02T11:03:17;6.00;99.90
45096;DHT22;30858;51.108;8.068;2023-02-02T11:05:44;6.00;99.90
45096;DHT22;30858;51.108;8.068;2023-02-02T11:08:41;6.10;99.90
45096;DHT22;30858;51.108;8.068;2023-02-02T11:11:22;6.10;99.90
45096;DHT22;30858;51.108;8.068;2023-02-02T11:14:02;6.10;99.90
45096;DHT22;30858;51.108;8.068;2023-02-02T11:16:32;6.10;99.90
45096;DHT22;30858;51.108;8.068;2023-02-02T11:18:58;6.20;99.90
45096;DHT22;30858;51.108;8.068;2023-02-02T11:21:31;6.20;99.90
45096;DHT22;30858;51.108;8.068;2023-02-02T11:24:04;6.20;99.90
45096;DHT22;30858;51.108;8.068;2023-02-02T11:26:46;6.20;99.90
45096;DHT22;30858;51.108;8.068;2023-02-02T11:32:14;6.10;99.90
45096;DHT22;30858;51.108;8.068;2023-02-02T11:34:41;6.20;99.90
45096;DHT22;30858;51.108;8.068;2023-02-02T11:37:12;6.10;99.90
45096;DHT22;30858;51.108;8.068;2023-02-02T11:39:40;6.10;99.90
45096;DHT22;30858;51.108;8.068;2023-02-02T11:42:20;6.10;99.90
45096;DHT22;30858;51.108;8.068;2023-02-02T11:44:57;6.10;99.90
45096;DHT22;30858;51.108;8.068;2023-02-02T11:47:26;6.20;99.90
45096;DHT22;30858;51.108;8.068;2023-02-02T11:49:53;6.20;99.90
45096;DHT22;30858;51.108;8.068;2023-02-02T11:52:24;6.20;99.90
45096;DHT22;30858;51.108;8.068;2023-02-02T11:54:59;6.20;99.90
45096;DHT22;30858;51.108;8.068;2023-02-02T11:57:27;6.30;99.90
45096;DHT22;30858;51.108;8.068;2023-02-02T12:00:14;6.30;99.90
45096;DHT22;30858;51.108;8.068;2023-02-02T12:02:45;6.40;99.90
45096;DHT22;30858;51.108;8.068;2023-02-02T12:07:41;6.30;99.90
45096;DHT22;30858;51.108;8.068;2023-02-02T12:10:27;6.30;99.90
45096;DHT22;30858;51.108;8.068;2023-02-02T12:15:41;6.40;99.90
45096;DHT22;30858;51.108;8.068;2023-02-02T12:24:25;6.40;99.90
45096;DHT22;30858;51.108;8.068;2023-02-02T12:30:16;6.50;99.90
45096;DHT22;30858;51.108;8.068;2023-02-02T12:35:28;6.50;99.90
45096;DHT22;30858;51.108;8.068;2023-02-02T12:38:19;6.50;99.90
45096;DHT22;30858;51.108;8.068;2023-02-02T12:41:05;6.50;99.90
45096;DHT22;30858;51.108;8.068;2023-02-02T12:43:38;6.50;99.90
45096;DHT22;30858;51.108;8.068;2023-02-02T12:49:12;6.40;99.90
45096;DHT22;30858;51.108;8.068;2023-02-02T12:52:07;6.50;99.90
45096;DHT22;30858;51.108;8.068;2023-02-02T13:02:43;6.40;99.90
45096;DHT22;30858;51.108;8.068;2023-02-02T13:05:29;6.40;99.90
45096;DHT22;30858;51.108;8.068;2023-02-02T13:08:00;6.40;99.90
45096;DHT22;30858;51.108;8.068;2023-02-02T13:10:38;6.40;99.90
45096;DHT22;30858;51.108;8.068;2023-02-02T13:15:40;6.40;99.90
45096;DHT22;30858;51.108;8.068;2023-02-02T13:18:22;6.40;99.90
45096;DHT22;30858;51.108;8.068;2023-02-02T13:21:06;6.40;99.90
45096;DHT22;30858;51.108;8.068;2023-02-02T13:23:42;6.30;99.90
45096;DHT22;30858;51.108;8.068;2023-02-02T13:32:14;6.40;99.90
45096;DHT22;30858;51.108;8.068;2023-02-02T13:37:23;6.40;99.90
45096;DHT22;30858;51.108;8.068;2023-02-02T13:39:59;6.50;99.90
45096;DHT22;30858;51.108;8.068;2023-02-02T13:42:41;6.50;99.90
45096;DHT22;30858;51.108;8.068;2023-02-02T13:45:35;6.40;99.90
45096;DHT22;30858;51.108;8.068;2023-02-02T13:50:49;6.40;99.90
45096;DHT22;30858;51.108;8.068;2023-02-02T13:56:24;6.40;99.90
45096;DHT22;30858;51.108;8.068;2023-02-02T13:59:03;6.40;99.90
45096;DHT22;30858;51.108;8.068;2023-02-02T14:01:31;6.40;99.90
45096;DHT22;30858;51.108;8.068;2023-02-02T14:03:58;6.40;99.90
45096;DHT22;30858;51.108;8.068;2023-02-02T14:06:26;6.40;99.90
45096;DHT22;30858;51.108;8.068;2023-02-02T14:08:54;6.40;99.90
45096;DHT22;30858;51.108;8.068;2023-02-02T14:11:30;6.30;99.90
45096;DHT22;30858;51.108;8.068;2023-02-02T14:14:08;6.30;99.90
45096;DHT22;30858;51.108;8.068;2023-02-02T14:16:56;6.40;99.90
45096;DHT22;30858;51.108;8.068;2023-02-02T14:22:03;6.50;99.90
45096;DHT22;30858;51.108;8.068;2023-02-02T14:24:36;6.60;99.90
45096;DHT22;30858;51.108;8.068;2023-02-02T14:29:35;6.40;99.90
45096;DHT22;30858;51.108;8.068;2023-02-02T14:40:19;6.50;99.90
45096;DHT22;30858;51.108;8.068;2023-02-02T14:45:32;6.60;99.90
45096;DHT22;30858;51.108;8.068;2023-02-02T14:48:15;6.60;99.90
45096;DHT22;30858;51.108;8.068;2023-02-02T14:58:57;6.60;99.90
45096;DHT22;30858;51.108;8.068;2023-02-02T15:01:27;6.60;99.90
45096;DHT22;30858;51.108;8.068;2023-02-02T15:06:37;6.60;99.90
45096;DHT22;30858;51.108;8.068;2023-02-02T15:15:02;6.50;99.90
45096;DHT22;30858;51.108;8.068;2023-02-02T15:22:56;6.60;99.90
45096;DHT22;30858;51.108;8.068;2023-02-02T15:25:44;6.50;99.90
45096;DHT22;30858;51.108;8.068;2023-02-02T15:33:45;6.50;99.90
45096;DHT22;30858;51.108;8.068;2023-02-02T15:36:17;6.50;99.90
45096;DHT22;30858;51.108;8.068;2023-02-02T15:38:44;6.50;99.90
45096;DHT22;30858;51.108;8.068;2023-02-02T15:41:33;6.50;99.90
45096;DHT22;30858;51.108;8.068;2023-02-02T15:44:01;6.60;99.90
45096;DHT22;30858;51.108;8.068;2023-02-02T15:46:41;6.60;99.90
45096;DHT22;30858;51.108;8.068;2023-02-02T15:51:51;6.60;99.90
45096;DHT22;30858;51.108;8.068;2023-02-02T15:54:25;6.70;99.90
45096;DHT22;30858;51.108;8.068;2023-02-02T15:56:51;6.70;99.90
45096;DHT22;30858;51.108;8.068;2023-02-02T15:59:20;6.70;99.90
45096;DHT22;30858;51.108;8.068;2023-02-02T16:01:49;6.60;99.90
45096;DHT22;30858;51.108;8.068;2023-02-02T16:04:21;6.60;99.90
45096;DHT22;30858;51.108;8.068;2023-02-02T16:06:49;6.50;99.90
45096;DHT22;30858;51.108;8.068;2023-02-02T16:09:24;6.50;99.90
45096;DHT22;30858;51.108;8.068;2023-02-02T16:11:51;6.50;99.90
45096;DHT22;30858;51.108;8.068;2023-02-02T16:14:16;6.50;99.90
45096;DHT22;30858;51.108;8.068;2023-02-02T16:16:42;6.50;99.90
45096;DHT22;30858;51.108;8.068;2023-02-02T16:19:25;6.50;99.90
45096;DHT22;30858;51.108;8.068;2023-02-02T16:21:57;6.50;99.90
45096;DHT22;30858;51.108;8.068;2023-02-02T16:24:33;6.50;99.90
45096;DHT22;30858;51.108;8.068;2023-02-02T16:27:04;6.50;99.90
45096;DHT22;30858;51.108;8.068;2023-02-02T16:29:31;6.50;99.90
45096;DHT22;30858;51.108;8.068;2023-02-02T16:31:57;6.60;99.90
45096;DHT22;30858;51.108;8.068;2023-02-02T16:34:43;6.60;99.90
45096;DHT22;30858;51.108;8.068;2023-02-02T16:37:16;6.60;99.90
45096;DHT22;30858;51.108;8.068;2023-02-02T16:39:42;6.60;99.90
45096;DHT22;30858;51.108;8.068;2023-02-02T16:42:28;6.60;99.90
45096;DHT22;30858;51.108;8.068;2023-02-02T16:44:55;6.60;99.90
45096;DHT22;30858;51.108;8.068;2023-02-02T16:52:47;6.60;99.90
45096;DHT22;30858;51.108;8.068;2023-02-02T16:55:19;6.60;99.90
45096;DHT22;30858;51.108;8.068;2023-02-02T16:57:46;6.70;99.90
45096;DHT22;30858;51.108;8.068;2023-02-02T17:00:25;6.60;99.90
45096;DHT22;30858;51.108;8.068;2023-02-02T17:03:00;6.70;99.90
45096;DHT22;30858;51.108;8.068;2023-02-02T17:05:30;6.60;99.90
45096;DHT22;30858;51.108;8.068;2023-02-02T17:07:59;6.60;99.90
45096;DHT22;30858;51.108;8.068;2023-02-02T17:10:27;6.60;99.90
45096;DHT22;30858;51.108;8.068;2023-02-02T17:12:56;6.60;99.90
45096;DHT22;30858;51.108;8.068;2023-02-02T17:15:23;6.60;99.90
45096;DHT22;30858;51.108;8.068;2023-02-02T17:17:50;6.60;99.90
45096;DHT22;30858;51.108;8.068;2023-02-02T17:20:17;6.50;99.90
45096;DHT22;30858;51.108;8.068;2023-02-02T17:22:46;6.50;99.90
45096;DHT22;30858;51.108;8.068;2023-02-02T17:25:17;6.50;99.90
45096;DHT22;30858;51.108;8.068;2023-02-02T17:27:44;6.60;99.90
45096;DHT22;30858;51.108;8.068;2023-02-02T17:30:16;6.50;99.90
45096;DHT22;30858;51.108;8.068;2023-02-02T17:32:42;6.60;99.90
45096;DHT22;30858;51.108;8.068;2023-02-02T17:35:34;6.60;99.90
45096;DHT22;30858;51.108;8.068;2023-02-02T17:37:59;6.60;99.90
45096;DHT22;30858;51.108;8.068;2023-02-02T17:40:25;6.60;99.90
45096;DHT22;30858;51.108;8.068;2023-02-02T17:42:52;6.60;99.90
45096;DHT22;30858;51.108;8.068;2023-02-02T17:45:23;6.60;99.90
45096;DHT22;30858;51.108;8.068;2023-02-02T17:47:51;6.60;99.90
45096;DHT22;30858;51.108;8.068;2023-02-02T17:50:17;6.70;99.90
45096;DHT22;30858;51.108;8.068;2023-02-02T17:52:43;6.80;99.90
45096;DHT22;30858;51.108;8.068;2023-02-02T17:55:19;6.80;99.90
45096;DHT22;30858;51.108;8.068;2023-02-02T17:57:46;6.60;99.90
45096;DHT22;30858;51.108;8.068;2023-02-02T18:00:12;6.60;99.90
45096;DHT22;30858;51.108;8.068;2023-02-02T18:02:38;6.60;99.90
45096;DHT22;30858;51.108;8.068;2023-02-02T18:05:04;6.50;99.90
45096;DHT22;30858;51.108;8.068;2023-02-02T18:07:29;6.50;99.90
45096;DHT22;30858;51.108;8.068;2023-02-02T18:09:55;6.60;99.90
45096;DHT22;30858;51.108;8.068;2023-02-02T18:12:21;6.60;99.90
45096;DHT22;30858;51.108;8.068;2023-02-02T18:14:46;6.60;99.90
45096;DHT22;30858;51.108;8.068;2023-02-02T18:17:12;6.60;99.90
45096;DHT22;30858;51.108;8.068;2023-02-02T18:19:37;6.60;99.90
45096;DHT22;30858;51.108;8.068;2023-02-02T18:22:03;6.60;99.90
45096;DHT22;30858;51.108;8.068;2023-02-02T18:24:31;6.60;99.90
45096;DHT22;30858;51.108;8.068;2023-02-02T18:26:56;6.60;99.90
45096;DHT22;30858;51.108;8.068;2023-02-02T18:29:22;6.60;99.90
45096;DHT22;30858;51.108;8.068;2023-02-02T18:31:48;6.70;99.90
45096;DHT22;30858;51.108;8.068;2023-02-02T18:34:13;6.70;99.90
45096;DHT22;30858;51.108;8.068;2023-02-02T18:36:39;6.70;99.90